sensor_id;sensor_type;location;lat;lon;timestamp;P1;durP1;ratioP1;P2;durP2;ratioP2
57746;SDS011;43580;44.014;20.466;2022-10-23T00:00:59;50.67;;;34.13;;
57746;SDS011;43580;44.014;20.466;2022-10-23T00:03:26;19.05;;;13.00;;
57746;SDS011;43580;44.014;20.466;2022-10-23T00:05:52;27.15;;;16.85;;
57746;SDS011;43580;44.014;20.466;2022-10-23T00:08:18;42.70;;;28.23;;
57746;SDS011;43580;44.014;20.466;2022-10-23T00:10:44;27.00;;;18.20;;
57746;SDS011;43580;44.014;20.466;2022-10-23T00:13:10;34.90;;;16.23;;
57746;SDS011;43580;44.014;20.466;2022-10-23T00:15:38;28.90;;;17.48;;
57746;SDS011;43580;44.014;20.466;2022-10-23T00:18:04;27.40;;;17.45;;
57746;SDS011;43580;44.014;20.466;2022-10-23T00:20:31;42.22;;;24.70;;
57746;SDS011;43580;44.014;20.466;2022-10-23T00:22:57;28.80;;;18.63;;
57746;SDS011;43580;44.014;20.466;2022-10-23T00:25:23;30.15;;;18.35;;
57746;SDS011;43580;44.014;20.466;2022-10-23T00:27:49;31.48;;;20.90;;
57746;SDS011;43580;44.014;20.466;2022-10-23T00:30:15;27.77;;;17.73;;
57746;SDS011;43580;44.014;20.466;2022-10-23T00:32:41;24.77;;;15.63;;
57746;SDS011;43580;44.014;20.466;2022-10-23T00:35:09;24.75;;;15.23;;
57746;SDS011;43580;44.014;20.466;2022-10-23T00:37:35;28.58;;;15.18;;
57746;SDS011;43580;44.014;20.466;2022-10-23T00:40:02;24.30;;;14.38;;
57746;SDS011;43580;44.014;20.466;2022-10-23T00:42:28;27.08;;;15.38;;
57746;SDS011;43580;44.014;20.466;2022-10-23T00:47:20;54.95;;;35.35;;
57746;SDS011;43580;44.014;20.466;2022-10-23T00:49:47;44.25;;;28.42;;
57746;SDS011;43580;44.014;20.466;2022-10-23T00:52:13;40.38;;;25.80;;
57746;SDS011;43580;44.014;20.466;2022-10-23T00:54:39;39.28;;;24.52;;
57746;SDS011;43580;44.014;20.466;2022-10-23T00:57:13;31.70;;;19.83;;
57746;SDS011;43580;44.014;20.466;2022-10-23T00:59:39;27.10;;;16.92;;
57746;SDS011;43580;44.014;20.466;2022-10-23T01:02:06;28.42;;;15.80;;
57746;SDS011;43580;44.014;20.466;2022-10-23T01:04:32;21.77;;;13.77;;
57746;SDS011;43580;44.014;20.466;2022-10-23T01:07:19;25.85;;;15.13;;
57746;SDS011;43580;44.014;20.466;2022-10-23T01:10:06;29.42;;;21.27;;
57746;SDS011;43580;44.014;20.466;2022-10-23T01:17:38;26.92;;;18.55;;
57746;SDS011;43580;44.014;20.466;2022-10-23T01:25:16;26.20;;;13.55;;
57746;SDS011;43580;44.014;20.466;2022-10-23T01:27:47;20.03;;;13.07;;
57746;SDS011;43580;44.014;20.466;2022-10-23T01:30:15;21.05;;;13.77;;
57746;SDS011;43580;44.014;20.466;2022-10-23T01:32:43;31.45;;;20.80;;
57746;SDS011;43580;44.014;20.466;2022-10-23T01:35:16;36.38;;;21.80;;
57746;SDS011;43580;44.014;20.466;2022-10-23T01:38:05;47.28;;;28.48;;
57746;SDS011;43580;44.014;20.466;2022-10-23T01:40:36;36.08;;;21.65;;
57746;SDS011;43580;44.014;20.466;2022-10-23T01:43:12;33.67;;;19.38;;
57746;SDS011;43580;44.014;20.466;2022-10-23T01:45:44;37.33;;;19.60;;
57746;SDS011;43580;44.014;20.466;2022-10-23T01:48:13;32.92;;;20.45;;
57746;SDS011;43580;44.014;20.466;2022-10-23T01:50:41;30.63;;;18.48;;
57746;SDS011;43580;44.014;20.466;2022-10-23T01:53:08;74.07;;;37.40;;
57746;SDS011;43580;44.014;20.466;2022-10-23T01:55:34;49.03;;;27.92;;
57746;SDS011;43580;44.014;20.466;2022-10-23T01:58:04;34.10;;;22.50;;
57746;SDS011;43580;44.014;20.466;2022-10-23T02:00:33;31.25;;;21.15;;
57746;SDS011;43580;44.014;20.466;2022-10-23T02:03:01;33.63;;;22.13;;
57746;SDS011;43580;44.014;20.466;2022-10-23T02:05:28;36.05;;;22.38;;
57746;SDS011;43580;44.014;20.466;2022-10-23T02:07:58;35.80;;;22.17;;
57746;SDS011;43580;44.014;20.466;2022-10-23T02:10:29;40.70;;;23.05;;
57746;SDS011;43580;44.014;20.466;2022-10-23T02:12:59;35.33;;;22.42;;
57746;SDS011;43580;44.014;20.466;2022-10-23T02:15:28;35.00;;;20.77;;
57746;SDS011;43580;44.014;20.466;2022-10-23T02:20:41;34.08;;;20.17;;
57746;SDS011;43580;44.014;20.466;2022-10-23T02:28:29;27.35;;;17.70;;
57746;SDS011;43580;44.014;20.466;2022-10-23T02:30:59;21.88;;;13.55;;
57746;SDS011;43580;44.014;20.466;2022-10-23T02:33:26;22.15;;;13.95;;
57746;SDS011;43580;44.014;20.466;2022-10-23T02:35:53;20.80;;;13.20;;
57746;SDS011;43580;44.014;20.466;2022-10-23T02:41:04;20.25;;;11.55;;
57746;SDS011;43580;44.014;20.466;2022-10-23T02:43:37;26.58;;;16.27;;
57746;SDS011;43580;44.014;20.466;2022-10-23T02:46:24;23.85;;;16.23;;
57746;SDS011;43580;44.014;20.466;2022-10-23T02:54:15;37.38;;;19.98;;
57746;SDS011;43580;44.014;20.466;2022-10-23T02:56:54;30.45;;;18.48;;
57746;SDS011;43580;44.014;20.466;2022-10-23T03:04:23;25.70;;;15.23;;
57746;SDS011;43580;44.014;20.466;2022-10-23T03:06:50;24.52;;;15.30;;
57746;SDS011;43580;44.014;20.466;2022-10-23T03:09:17;26.92;;;14.77;;
57746;SDS011;43580;44.014;20.466;2022-10-23T03:11:43;26.60;;;16.48;;
57746;SDS011;43580;44.014;20.466;2022-10-23T03:14:11;25.30;;;17.10;;
57746;SDS011;43580;44.014;20.466;2022-10-23T03:16:38;27.65;;;16.80;;
57746;SDS011;43580;44.014;20.466;2022-10-23T03:19:04;25.73;;;15.88;;
57746;SDS011;43580;44.014;20.466;2022-10-23T03:21:30;23.10;;;16.15;;
57746;SDS011;43580;44.014;20.466;2022-10-23T03:23:56;26.45;;;14.85;;
57746;SDS011;43580;44.014;20.466;2022-10-23T03:26:22;24.58;;;14.93;;
57746;SDS011;43580;44.014;20.466;2022-10-23T03:28:48;21.35;;;13.90;;
57746;SDS011;43580;44.014;20.466;2022-10-23T03:31:14;23.15;;;13.95;;
57746;SDS011;43580;44.014;20.466;2022-10-23T03:33:40;23.92;;;14.70;;
57746;SDS011;43580;44.014;20.466;2022-10-23T03:36:06;25.25;;;15.02;;
57746;SDS011;43580;44.014;20.466;2022-10-23T03:38:33;25.33;;;15.13;;
57746;SDS011;43580;44.014;20.466;2022-10-23T03:40:59;25.77;;;15.45;;
57746;SDS011;43580;44.014;20.466;2022-10-23T03:43:25;27.27;;;16.15;;
57746;SDS011;43580;44.014;20.466;2022-10-23T03:45:51;23.63;;;15.60;;
57746;SDS011;43580;44.014;20.466;2022-10-23T03:48:17;24.92;;;16.25;;
57746;SDS011;43580;44.014;20.466;2022-10-23T03:50:43;28.65;;;16.75;;
57746;SDS011;43580;44.014;20.466;2022-10-23T03:53:09;28.42;;;16.52;;
57746;SDS011;43580;44.014;20.466;2022-10-23T03:55:35;22.02;;;15.93;;
57746;SDS011;43580;44.014;20.466;2022-10-23T03:58:01;24.00;;;16.27;;
57746;SDS011;43580;44.014;20.466;2022-10-23T04:00:27;23.45;;;15.70;;
57746;SDS011;43580;44.014;20.466;2022-10-23T04:02:53;22.08;;;15.75;;
57746;SDS011;43580;44.014;20.466;2022-10-23T04:05:19;25.42;;;15.05;;
57746;SDS011;43580;44.014;20.466;2022-10-23T04:07:45;21.95;;;14.80;;
57746;SDS011;43580;44.014;20.466;2022-10-23T04:10:11;24.92;;;14.82;;
57746;SDS011;43580;44.014;20.466;2022-10-23T04:12:37;23.90;;;14.80;;
57746;SDS011;43580;44.014;20.466;2022-10-23T04:15:03;23.90;;;14.77;;
57746;SDS011;43580;44.014;20.466;2022-10-23T04:17:29;24.23;;;14.27;;
57746;SDS011;43580;44.014;20.466;2022-10-23T04:19:55;20.17;;;14.65;;
57746;SDS011;43580;44.014;20.466;2022-10-23T04:22:21;22.60;;;14.55;;
57746;SDS011;43580;44.014;20.466;2022-10-23T04:24:48;20.98;;;13.13;;
57746;SDS011;43580;44.014;20.466;2022-10-23T04:27:14;19.42;;;13.48;;
57746;SDS011;43580;44.014;20.466;2022-10-23T04:29:40;23.27;;;14.48;;
57746;SDS011;43580;44.014;20.466;2022-10-23T04:32:06;21.50;;;14.07;;
57746;SDS011;43580;44.014;20.466;2022-10-23T04:34:32;25.15;;;14.07;;
57746;SDS011;43580;44.014;20.466;2022-10-23T04:36:58;21.10;;;14.32;;
57746;SDS011;43580;44.014;20.466;2022-10-23T04:39:24;21.52;;;14.30;;
57746;SDS011;43580;44.014;20.466;2022-10-23T04:41:50;27.15;;;15.15;;
57746;SDS011;43580;44.014;20.466;2022-10-23T04:44:16;31.20;;;19.15;;
57746;SDS011;43580;44.014;20.466;2022-10-23T04:46:43;36.38;;;21.55;;
57746;SDS011;43580;44.014;20.466;2022-10-23T04:49:09;30.20;;;19.30;;
57746;SDS011;43580;44.014;20.466;2022-10-23T04:51:35;40.63;;;27.15;;
57746;SDS011;43580;44.014;20.466;2022-10-23T04:54:02;49.88;;;31.40;;
57746;SDS011;43580;44.014;20.466;2022-10-23T04:56:28;33.20;;;23.02;;
57746;SDS011;43580;44.014;20.466;2022-10-23T04:58:54;34.00;;;22.35;;
57746;SDS011;43580;44.014;20.466;2022-10-23T05:01:20;25.80;;;16.48;;
57746;SDS011;43580;44.014;20.466;2022-10-23T05:03:46;22.00;;;16.27;;
57746;SDS011;43580;44.014;20.466;2022-10-23T05:06:12;29.02;;;18.30;;
57746;SDS011;43580;44.014;20.466;2022-10-23T05:08:38;25.45;;;17.58;;
57746;SDS011;43580;44.014;20.466;2022-10-23T05:11:07;31.45;;;20.48;;
57746;SDS011;43580;44.014;20.466;2022-10-23T05:13:33;28.58;;;19.95;;
57746;SDS011;43580;44.014;20.466;2022-10-23T05:15:59;33.10;;;21.52;;
57746;SDS011;43580;44.014;20.466;2022-10-23T05:18:27;35.42;;;20.73;;
57746;SDS011;43580;44.014;20.466;2022-10-23T05:20:56;33.90;;;21.58;;
57746;SDS011;43580;44.014;20.466;2022-10-23T05:23:23;36.10;;;21.83;;
57746;SDS011;43580;44.014;20.466;2022-10-23T05:25:49;28.92;;;21.13;;
57746;SDS011;43580;44.014;20.466;2022-10-23T05:28:18;34.50;;;20.58;;
57746;SDS011;43580;44.014;20.466;2022-10-23T05:30:44;31.30;;;19.23;;
57746;SDS011;43580;44.014;20.466;2022-10-23T05:33:13;29.73;;;19.10;;
57746;SDS011;43580;44.014;20.466;2022-10-23T05:35:39;28.30;;;18.35;;
57746;SDS011;43580;44.014;20.466;2022-10-23T05:38:07;26.13;;;18.33;;
57746;SDS011;43580;44.014;20.466;2022-10-23T05:40:33;29.40;;;18.95;;
57746;SDS011;43580;44.014;20.466;2022-10-23T05:42:59;32.10;;;19.75;;
57746;SDS011;43580;44.014;20.466;2022-10-23T05:45:25;58.05;;;35.72;;
57746;SDS011;43580;44.014;20.466;2022-10-23T05:47:51;61.80;;;35.92;;
57746;SDS011;43580;44.014;20.466;2022-10-23T05:50:17;59.00;;;39.00;;
57746;SDS011;43580;44.014;20.466;2022-10-23T05:52:47;71.50;;;45.47;;
57746;SDS011;43580;44.014;20.466;2022-10-23T05:55:14;116.25;;;75.20;;
57746;SDS011;43580;44.014;20.466;2022-10-23T05:57:40;88.10;;;62.30;;
57746;SDS011;43580;44.014;20.466;2022-10-23T06:00:06;44.03;;;31.63;;
57746;SDS011;43580;44.014;20.466;2022-10-23T06:02:35;115.32;;;85.05;;
57746;SDS011;43580;44.014;20.466;2022-10-23T06:05:01;47.35;;;31.70;;
57746;SDS011;43580;44.014;20.466;2022-10-23T06:07:28;57.78;;;38.13;;
57746;SDS011;43580;44.014;20.466;2022-10-23T06:09:54;38.42;;;25.38;;
57746;SDS011;43580;44.014;20.466;2022-10-23T06:12:20;34.42;;;22.48;;
57746;SDS011;43580;44.014;20.466;2022-10-23T06:14:47;91.38;;;72.45;;
57746;SDS011;43580;44.014;20.466;2022-10-23T06:17:13;56.78;;;37.75;;
57746;SDS011;43580;44.014;20.466;2022-10-23T06:19:39;45.78;;;31.33;;
57746;SDS011;43580;44.014;20.466;2022-10-23T06:22:06;47.05;;;34.25;;
57746;SDS011;43580;44.014;20.466;2022-10-23T06:24:32;43.95;;;28.60;;
57746;SDS011;43580;44.014;20.466;2022-10-23T06:26:58;34.88;;;22.95;;
57746;SDS011;43580;44.014;20.466;2022-10-23T06:29:24;25.70;;;18.10;;
57746;SDS011;43580;44.014;20.466;2022-10-23T06:31:50;33.45;;;25.73;;
57746;SDS011;43580;44.014;20.466;2022-10-23T06:34:16;46.38;;;34.95;;
57746;SDS011;43580;44.014;20.466;2022-10-23T06:36:42;29.17;;;20.40;;
57746;SDS011;43580;44.014;20.466;2022-10-23T06:39:08;40.55;;;31.25;;
57746;SDS011;43580;44.014;20.466;2022-10-23T06:41:35;31.00;;;21.88;;
57746;SDS011;43580;44.014;20.466;2022-10-23T06:44:02;34.35;;;23.92;;
57746;SDS011;43580;44.014;20.466;2022-10-23T06:46:29;32.72;;;20.58;;
57746;SDS011;43580;44.014;20.466;2022-10-23T06:48:57;30.08;;;19.77;;
57746;SDS011;43580;44.014;20.466;2022-10-23T06:51:23;29.38;;;20.60;;
57746;SDS011;43580;44.014;20.466;2022-10-23T06:53:53;28.08;;;18.55;;
57746;SDS011;43580;44.014;20.466;2022-10-23T06:56:20;23.98;;;18.77;;
57746;SDS011;43580;44.014;20.466;2022-10-23T06:58:46;34.33;;;23.05;;
57746;SDS011;43580;44.014;20.466;2022-10-23T07:01:13;37.78;;;24.90;;
57746;SDS011;43580;44.014;20.466;2022-10-23T07:03:40;40.25;;;28.90;;
57746;SDS011;43580;44.014;20.466;2022-10-23T07:06:07;37.95;;;27.67;;
57746;SDS011;43580;44.014;20.466;2022-10-23T07:08:34;44.17;;;28.98;;
57746;SDS011;43580;44.014;20.466;2022-10-23T07:11:04;38.90;;;27.70;;
57746;SDS011;43580;44.014;20.466;2022-10-23T07:13:31;37.97;;;27.67;;
57746;SDS011;43580;44.014;20.466;2022-10-23T07:15:57;34.95;;;25.50;;
57746;SDS011;43580;44.014;20.466;2022-10-23T07:18:26;32.33;;;23.88;;
57746;SDS011;43580;44.014;20.466;2022-10-23T07:20:56;33.60;;;25.10;;
57746;SDS011;43580;44.014;20.466;2022-10-23T07:23:22;23.95;;;18.90;;
57746;SDS011;43580;44.014;20.466;2022-10-23T07:25:48;21.17;;;13.98;;
57746;SDS011;43580;44.014;20.466;2022-10-23T07:28:14;16.48;;;11.68;;
57746;SDS011;43580;44.014;20.466;2022-10-23T07:30:40;16.75;;;11.73;;
57746;SDS011;43580;44.014;20.466;2022-10-23T07:33:06;16.55;;;11.40;;
57746;SDS011;43580;44.014;20.466;2022-10-23T07:35:35;14.40;;;8.82;;
57746;SDS011;43580;44.014;20.466;2022-10-23T07:38:03;12.73;;;8.52;;
57746;SDS011;43580;44.014;20.466;2022-10-23T07:40:29;14.63;;;8.82;;
57746;SDS011;43580;44.014;20.466;2022-10-23T07:43:00;16.58;;;9.80;;
57746;SDS011;43580;44.014;20.466;2022-10-23T07:45:26;12.55;;;8.60;;
57746;SDS011;43580;44.014;20.466;2022-10-23T07:47:52;11.88;;;8.70;;
57746;SDS011;43580;44.014;20.466;2022-10-23T07:50:18;12.30;;;7.85;;
57746;SDS011;43580;44.014;20.466;2022-10-23T07:52:44;11.02;;;7.57;;
57746;SDS011;43580;44.014;20.466;2022-10-23T07:55:10;12.05;;;8.13;;
57746;SDS011;43580;44.014;20.466;2022-10-23T07:57:37;14.43;;;10.55;;
57746;SDS011;43580;44.014;20.466;2022-10-23T08:00:03;14.30;;;9.15;;
57746;SDS011;43580;44.014;20.466;2022-10-23T08:02:30;15.13;;;10.10;;
57746;SDS011;43580;44.014;20.466;2022-10-23T08:04:56;18.20;;;8.93;;
57746;SDS011;43580;44.014;20.466;2022-10-23T08:07:22;14.43;;;7.30;;
57746;SDS011;43580;44.014;20.466;2022-10-23T08:09:48;39.85;;;33.42;;
57746;SDS011;43580;44.014;20.466;2022-10-23T08:12:14;17.40;;;11.77;;
57746;SDS011;43580;44.014;20.466;2022-10-23T08:14:40;23.17;;;15.38;;
57746;SDS011;43580;44.014;20.466;2022-10-23T08:17:06;13.98;;;9.00;;
57746;SDS011;43580;44.014;20.466;2022-10-23T08:19:34;14.45;;;8.52;;
57746;SDS011;43580;44.014;20.466;2022-10-23T08:22:00;16.05;;;9.55;;
57746;SDS011;43580;44.014;20.466;2022-10-23T08:24:29;26.05;;;13.90;;
57746;SDS011;43580;44.014;20.466;2022-10-23T08:26:57;19.02;;;9.93;;
57746;SDS011;43580;44.014;20.466;2022-10-23T08:29:23;17.65;;;9.65;;
57746;SDS011;43580;44.014;20.466;2022-10-23T08:31:51;19.17;;;9.63;;
57746;SDS011;43580;44.014;20.466;2022-10-23T08:34:17;20.67;;;10.27;;
57746;SDS011;43580;44.014;20.466;2022-10-23T08:36:44;14.73;;;8.52;;
57746;SDS011;43580;44.014;20.466;2022-10-23T08:39:10;20.58;;;10.13;;
57746;SDS011;43580;44.014;20.466;2022-10-23T08:41:37;20.00;;;9.63;;
57746;SDS011;43580;44.014;20.466;2022-10-23T08:44:10;18.00;;;10.30;;
57746;SDS011;43580;44.014;20.466;2022-10-23T08:46:41;17.23;;;10.73;;
57746;SDS011;43580;44.014;20.466;2022-10-23T08:49:15;15.27;;;10.05;;
57746;SDS011;43580;44.014;20.466;2022-10-23T08:51:46;18.08;;;9.75;;
57746;SDS011;43580;44.014;20.466;2022-10-23T08:54:18;17.10;;;9.38;;
57746;SDS011;43580;44.014;20.466;2022-10-23T08:56:53;14.48;;;9.70;;
57746;SDS011;43580;44.014;20.466;2022-10-23T09:01:51;16.60;;;10.50;;
57746;SDS011;43580;44.014;20.466;2022-10-23T09:04:19;14.05;;;9.15;;
57746;SDS011;43580;44.014;20.466;2022-10-23T09:07:04;15.85;;;8.70;;
57746;SDS011;43580;44.014;20.466;2022-10-23T09:12:08;16.08;;;9.10;;
57746;SDS011;43580;44.014;20.466;2022-10-23T09:19:30;15.32;;;8.20;;
57746;SDS011;43580;44.014;20.466;2022-10-23T09:21:56;11.52;;;7.80;;
57746;SDS011;43580;44.014;20.466;2022-10-23T09:24:26;17.25;;;7.75;;
57746;SDS011;43580;44.014;20.466;2022-10-23T09:26:56;12.70;;;8.10;;
57746;SDS011;43580;44.014;20.466;2022-10-23T09:29:23;11.23;;;6.93;;
57746;SDS011;43580;44.014;20.466;2022-10-23T09:31:54;11.98;;;6.95;;
57746;SDS011;43580;44.014;20.466;2022-10-23T09:34:21;14.80;;;7.32;;
57746;SDS011;43580;44.014;20.466;2022-10-23T09:36:53;12.75;;;6.28;;
57746;SDS011;43580;44.014;20.466;2022-10-23T09:39:37;14.15;;;7.28;;
57746;SDS011;43580;44.014;20.466;2022-10-23T09:42:13;12.98;;;9.27;;
57746;SDS011;43580;44.014;20.466;2022-10-23T09:44:46;9.45;;;6.28;;
57746;SDS011;43580;44.014;20.466;2022-10-23T09:47:19;9.90;;;6.43;;
57746;SDS011;43580;44.014;20.466;2022-10-23T09:49:47;9.95;;;6.57;;
57746;SDS011;43580;44.014;20.466;2022-10-23T09:59:52;9.73;;;5.40;;
57746;SDS011;43580;44.014;20.466;2022-10-23T10:04:47;13.23;;;7.38;;
57746;SDS011;43580;44.014;20.466;2022-10-23T10:07:18;10.05;;;6.60;;
57746;SDS011;43580;44.014;20.466;2022-10-23T10:09:44;69.13;;;59.47;;
57746;SDS011;43580;44.014;20.466;2022-10-23T10:22:52;12.05;;;6.90;;
57746;SDS011;43580;44.014;20.466;2022-10-23T10:33:34;11.05;;;7.05;;
57746;SDS011;43580;44.014;20.466;2022-10-23T10:36:02;14.65;;;8.80;;
57746;SDS011;43580;44.014;20.466;2022-10-23T10:45:56;49.70;;;32.45;;
57746;SDS011;43580;44.014;20.466;2022-10-23T10:51:07;10.95;;;7.53;;
57746;SDS011;43580;44.014;20.466;2022-10-23T10:56:03;16.90;;;8.20;;
57746;SDS011;43580;44.014;20.466;2022-10-23T11:06:36;12.77;;;7.20;;
57746;SDS011;43580;44.014;20.466;2022-10-23T11:09:10;13.50;;;8.63;;
57746;SDS011;43580;44.014;20.466;2022-10-23T11:11:39;18.35;;;11.55;;
57746;SDS011;43580;44.014;20.466;2022-10-23T11:14:06;11.13;;;7.28;;
57746;SDS011;43580;44.014;20.466;2022-10-23T11:16:39;12.32;;;6.95;;
57746;SDS011;43580;44.014;20.466;2022-10-23T11:19:21;11.40;;;8.35;;
57746;SDS011;43580;44.014;20.466;2022-10-23T11:27:23;16.48;;;7.53;;
57746;SDS011;43580;44.014;20.466;2022-10-23T11:37:43;11.52;;;6.53;;
57746;SDS011;43580;44.014;20.466;2022-10-23T11:47:59;12.13;;;6.70;;
57746;SDS011;43580;44.014;20.466;2022-10-23T11:50:32;13.90;;;7.03;;
57746;SDS011;43580;44.014;20.466;2022-10-23T11:53:00;11.45;;;6.63;;
57746;SDS011;43580;44.014;20.466;2022-10-23T11:55:34;12.70;;;8.00;;
57746;SDS011;43580;44.014;20.466;2022-10-23T12:00:30;14.23;;;8.45;;
57746;SDS011;43580;44.014;20.466;2022-10-23T12:02:57;10.77;;;7.15;;
57746;SDS011;43580;44.014;20.466;2022-10-23T12:07:56;10.88;;;6.18;;
57746;SDS011;43580;44.014;20.466;2022-10-23T12:10:25;9.02;;;6.43;;
57746;SDS011;43580;44.014;20.466;2022-10-23T12:13:03;12.25;;;5.93;;
57746;SDS011;43580;44.014;20.466;2022-10-23T12:15:29;10.90;;;6.72;;
57746;SDS011;43580;44.014;20.466;2022-10-23T12:18:14;13.60;;;6.20;;
57746;SDS011;43580;44.014;20.466;2022-10-23T12:38:45;13.95;;;5.82;;
57746;SDS011;43580;44.014;20.466;2022-10-23T12:41:26;12.07;;;7.13;;
57746;SDS011;43580;44.014;20.466;2022-10-23T12:43:59;13.18;;;6.00;;
57746;SDS011;43580;44.014;20.466;2022-10-23T12:46:34;13.45;;;6.43;;
57746;SDS011;43580;44.014;20.466;2022-10-23T12:49:02;12.38;;;6.53;;
57746;SDS011;43580;44.014;20.466;2022-10-23T12:51:30;11.05;;;6.25;;
57746;SDS011;43580;44.014;20.466;2022-10-23T12:53:56;10.55;;;6.10;;
57746;SDS011;43580;44.014;20.466;2022-10-23T12:56:25;9.50;;;5.82;;
57746;SDS011;43580;44.014;20.466;2022-10-23T12:58:53;12.02;;;6.47;;
57746;SDS011;43580;44.014;20.466;2022-10-23T13:01:38;11.15;;;6.05;;
57746;SDS011;43580;44.014;20.466;2022-10-23T13:04:27;11.57;;;5.75;;
57746;SDS011;43580;44.014;20.466;2022-10-23T13:06:58;9.30;;;5.90;;
57746;SDS011;43580;44.014;20.466;2022-10-23T13:09:29;13.02;;;5.82;;
57746;SDS011;43580;44.014;20.466;2022-10-23T13:11:56;13.50;;;7.47;;
57746;SDS011;43580;44.014;20.466;2022-10-23T13:14:31;13.57;;;8.10;;
57746;SDS011;43580;44.014;20.466;2022-10-23T13:19:26;13.57;;;7.25;;
57746;SDS011;43580;44.014;20.466;2022-10-23T13:21:52;13.57;;;7.30;;
57746;SDS011;43580;44.014;20.466;2022-10-23T13:24:18;11.32;;;6.32;;
57746;SDS011;43580;44.014;20.466;2022-10-23T13:26:46;9.48;;;6.40;;
57746;SDS011;43580;44.014;20.466;2022-10-23T13:29:23;12.82;;;6.68;;
57746;SDS011;43580;44.014;20.466;2022-10-23T13:31:51;11.75;;;6.90;;
57746;SDS011;43580;44.014;20.466;2022-10-23T13:36:50;26.45;;;18.88;;
57746;SDS011;43580;44.014;20.466;2022-10-23T13:39:21;15.93;;;8.10;;
57746;SDS011;43580;44.014;20.466;2022-10-23T13:41:47;16.35;;;6.93;;
57746;SDS011;43580;44.014;20.466;2022-10-23T13:44:14;10.90;;;6.97;;
57746;SDS011;43580;44.014;20.466;2022-10-23T13:46:40;10.00;;;6.32;;
57746;SDS011;43580;44.014;20.466;2022-10-23T13:49:07;16.75;;;6.18;;
57746;SDS011;43580;44.014;20.466;2022-10-23T13:51:34;12.52;;;6.22;;
57746;SDS011;43580;44.014;20.466;2022-10-23T13:54:01;12.35;;;5.95;;
57746;SDS011;43580;44.014;20.466;2022-10-23T13:56:28;16.65;;;6.35;;
57746;SDS011;43580;44.014;20.466;2022-10-23T13:58:54;11.90;;;5.50;;
57746;SDS011;43580;44.014;20.466;2022-10-23T14:01:27;10.57;;;7.07;;
57746;SDS011;43580;44.014;20.466;2022-10-23T14:03:54;15.65;;;10.10;;
57746;SDS011;43580;44.014;20.466;2022-10-23T14:06:21;17.52;;;7.90;;
57746;SDS011;43580;44.014;20.466;2022-10-23T14:08:50;9.27;;;5.90;;
57746;SDS011;43580;44.014;20.466;2022-10-23T14:11:17;10.25;;;5.80;;
57746;SDS011;43580;44.014;20.466;2022-10-23T14:13:43;13.32;;;6.60;;
57746;SDS011;43580;44.014;20.466;2022-10-23T14:16:13;19.63;;;15.00;;
57746;SDS011;43580;44.014;20.466;2022-10-23T14:18:39;11.68;;;8.45;;
57746;SDS011;43580;44.014;20.466;2022-10-23T14:21:06;13.45;;;7.60;;
57746;SDS011;43580;44.014;20.466;2022-10-23T14:23:33;11.65;;;5.78;;
57746;SDS011;43580;44.014;20.466;2022-10-23T14:26:06;12.63;;;6.35;;
57746;SDS011;43580;44.014;20.466;2022-10-23T14:28:32;9.75;;;6.20;;
57746;SDS011;43580;44.014;20.466;2022-10-23T14:31:05;17.77;;;12.52;;
57746;SDS011;43580;44.014;20.466;2022-10-23T14:33:31;12.30;;;8.18;;
57746;SDS011;43580;44.014;20.466;2022-10-23T14:35:57;15.13;;;7.30;;
57746;SDS011;43580;44.014;20.466;2022-10-23T14:38:23;11.93;;;7.03;;
57746;SDS011;43580;44.014;20.466;2022-10-23T14:40:49;14.70;;;7.57;;
57746;SDS011;43580;44.014;20.466;2022-10-23T14:43:18;27.27;;;18.38;;
57746;SDS011;43580;44.014;20.466;2022-10-23T14:45:44;16.65;;;10.13;;
57746;SDS011;43580;44.014;20.466;2022-10-23T14:48:10;19.90;;;12.95;;
57746;SDS011;43580;44.014;20.466;2022-10-23T14:50:37;14.35;;;8.93;;
57746;SDS011;43580;44.014;20.466;2022-10-23T14:53:06;15.27;;;9.63;;
57746;SDS011;43580;44.014;20.466;2022-10-23T14:55:32;17.58;;;9.45;;
57746;SDS011;43580;44.014;20.466;2022-10-23T14:57:59;18.42;;;10.82;;
57746;SDS011;43580;44.014;20.466;2022-10-23T15:00:25;12.30;;;8.77;;
57746;SDS011;43580;44.014;20.466;2022-10-23T15:02:51;11.40;;;7.25;;
57746;SDS011;43580;44.014;20.466;2022-10-23T15:05:17;12.30;;;6.78;;
57746;SDS011;43580;44.014;20.466;2022-10-23T15:07:43;12.68;;;7.82;;
57746;SDS011;43580;44.014;20.466;2022-10-23T15:10:09;15.20;;;9.18;;
57746;SDS011;43580;44.014;20.466;2022-10-23T15:12:35;14.98;;;9.15;;
57746;SDS011;43580;44.014;20.466;2022-10-23T15:15:03;20.25;;;9.70;;
57746;SDS011;43580;44.014;20.466;2022-10-23T15:17:29;16.52;;;9.95;;
57746;SDS011;43580;44.014;20.466;2022-10-23T15:19:56;18.33;;;9.75;;
57746;SDS011;43580;44.014;20.466;2022-10-23T15:22:22;17.65;;;10.48;;
57746;SDS011;43580;44.014;20.466;2022-10-23T15:24:48;17.63;;;9.05;;
57746;SDS011;43580;44.014;20.466;2022-10-23T15:27:16;37.25;;;19.13;;
57746;SDS011;43580;44.014;20.466;2022-10-23T15:29:42;40.90;;;14.52;;
57746;SDS011;43580;44.014;20.466;2022-10-23T15:32:09;336.98;;;43.42;;
57746;SDS011;43580;44.014;20.466;2022-10-23T15:34:35;66.55;;;15.52;;
57746;SDS011;43580;44.014;20.466;2022-10-23T15:37:02;39.53;;;13.05;;
57746;SDS011;43580;44.014;20.466;2022-10-23T15:39:31;32.75;;;12.18;;
57746;SDS011;43580;44.014;20.466;2022-10-23T15:41:58;29.67;;;14.07;;
57746;SDS011;43580;44.014;20.466;2022-10-23T15:44:26;24.08;;;14.25;;
57746;SDS011;43580;44.014;20.466;2022-10-23T15:46:52;19.80;;;11.18;;
57746;SDS011;43580;44.014;20.466;2022-10-23T15:49:20;18.23;;;11.27;;
57746;SDS011;43580;44.014;20.466;2022-10-23T15:51:47;19.15;;;11.63;;
57746;SDS011;43580;44.014;20.466;2022-10-23T15:54:13;22.17;;;12.70;;
57746;SDS011;43580;44.014;20.466;2022-10-23T15:56:41;28.23;;;18.05;;
57746;SDS011;43580;44.014;20.466;2022-10-23T15:59:07;28.15;;;19.75;;
57746;SDS011;43580;44.014;20.466;2022-10-23T16:01:33;32.22;;;22.25;;
57746;SDS011;43580;44.014;20.466;2022-10-23T16:03:59;31.17;;;20.73;;
57746;SDS011;43580;44.014;20.466;2022-10-23T16:06:26;27.88;;;18.98;;
57746;SDS011;43580;44.014;20.466;2022-10-23T16:08:52;30.30;;;20.08;;
57746;SDS011;43580;44.014;20.466;2022-10-23T16:11:19;30.88;;;20.77;;
57746;SDS011;43580;44.014;20.466;2022-10-23T16:13:45;34.17;;;18.40;;
57746;SDS011;43580;44.014;20.466;2022-10-23T16:16:12;68.22;;;40.47;;
57746;SDS011;43580;44.014;20.466;2022-10-23T16:18:38;49.08;;;32.42;;
57746;SDS011;43580;44.014;20.466;2022-10-23T16:21:05;45.42;;;30.27;;
57746;SDS011;43580;44.014;20.466;2022-10-23T16:23:31;40.50;;;27.67;;
57746;SDS011;43580;44.014;20.466;2022-10-23T16:26:00;45.63;;;30.25;;
57746;SDS011;43580;44.014;20.466;2022-10-23T16:28:27;134.02;;;71.70;;
57746;SDS011;43580;44.014;20.466;2022-10-23T16:30:53;104.43;;;61.25;;
57746;SDS011;43580;44.014;20.466;2022-10-23T16:33:19;108.78;;;62.10;;
57746;SDS011;43580;44.014;20.466;2022-10-23T16:35:45;168.07;;;91.40;;
57746;SDS011;43580;44.014;20.466;2022-10-23T16:38:11;249.82;;;131.50;;
57746;SDS011;43580;44.014;20.466;2022-10-23T16:40:37;198.00;;;108.20;;